Terminal Aerodrome Forecast
Issued by NWS Twin Cities, MN

Home | Current Version | Previous Version | Graphics & Text | Print | Product List | Glossary On
Versions: 1 2 3 4 5 6 7 8 9 10 11 12 13 14 15 16 17 18 19 20 21 22 23 24 25
000
FTUS43 KMPX 221200 AAA
TAFEAU
TAF AMD
KEAU 221228Z 2212/2312 00000KT 3SM BR OVC005
      TEMPO 2212/2214 1SM BR OVC003
     FM221600 36004KT P6SM OVC008
     FM221900 01004KT P6SM BKN016
     FM222200 04004KT P6SM SCT025
     FM230600 05002KT 2SM BR FEW002
     FM230800 06002KT 1/4SM FG VV001=

USA.gov is the U.S. government's official web portal to all federal, state and local government web resources and services.